createdAt,value
2023-02-09T05:44:53.165Z,0.30
2023-02-09T05:52:04.261Z,0.40
2023-02-09T05:55:06.399Z,0.40
2023-02-09T05:58:08.267Z,0.30
2023-02-09T06:01:10.033Z,0.40
2023-02-09T06:04:11.897Z,0.40
2023-02-09T06:07:13.851Z,0.50
2023-02-09T06:10:16.544Z,0.50
2023-02-09T06:13:18.366Z,0.50
2023-02-09T06:16:20.092Z,0.50
2023-02-09T06:19:22.047Z,0.40
2023-02-09T06:22:24.014Z,0.50
2023-02-09T06:25:25.987Z,0.40
2023-02-09T06:28:28.062Z,0.30
2023-02-09T06:31:30.045Z,0.40
2023-02-09T06:34:32.610Z,0.50
2023-02-09T06:37:34.579Z,0.50
2023-02-09T06:40:36.312Z,0.60
2023-02-09T06:43:38.583Z,0.50
2023-02-09T06:46:40.512Z,0.40
2023-02-09T06:49:42.431Z,0.40
2023-02-09T06:52:44.257Z,0.60
2023-02-09T06:55:46.082Z,0.60
2023-02-09T06:58:47.937Z,0.70
2023-02-09T07:01:52.782Z,0.70
2023-02-09T07:04:57.779Z,0.60
2023-02-09T07:07:59.764Z,0.70
2023-02-09T07:11:02.595Z,0.70
2023-02-09T07:14:04.607Z,0.70
2023-02-09T07:17:06.572Z,0.70
2023-02-09T07:20:09.239Z,0.60
2023-02-09T07:23:11.090Z,0.60
2023-02-09T07:26:15.263Z,0.70
2023-02-09T07:29:17.174Z,0.80
2023-02-09T07:32:19.205Z,0.70
2023-02-09T07:35:20.946Z,0.80
2023-02-09T07:38:22.884Z,0.80
2023-02-09T07:41:25.368Z,0.90
2023-02-09T07:44:27.883Z,1.00
2023-02-09T07:47:29.846Z,1.10
2023-02-09T07:50:31.762Z,1.00
2023-02-09T07:53:33.993Z,1.20
2023-02-09T07:56:35.997Z,1.30
2023-02-09T07:59:37.934Z,1.30
2023-02-09T08:02:39.921Z,1.50
2023-02-09T08:05:43.675Z,1.60
2023-02-09T08:08:46.357Z,1.60
2023-02-09T08:11:48.168Z,1.60
2023-02-09T08:14:50.242Z,1.70
2023-02-09T08:17:53.673Z,1.70
2023-02-09T08:20:55.766Z,1.70
2023-02-09T08:23:58.045Z,1.90
2023-02-09T08:27:00.233Z,2.00
2023-02-09T08:30:03.032Z,1.90
2023-02-09T08:33:04.958Z,2.10
2023-02-09T08:36:07.137Z,2.10
2023-02-09T08:39:09.411Z,2.20
2023-02-09T08:42:13.046Z,2.40
2023-02-09T08:45:15.045Z,2.40
2023-02-09T08:48:19.464Z,2.50
2023-02-09T08:51:21.993Z,2.50
2023-02-09T08:54:29.069Z,2.50
2023-02-09T08:57:43.067Z,2.60
2023-02-09T09:00:45.916Z,2.60
2023-02-09T09:03:47.874Z,2.70
2023-02-09T09:06:49.844Z,2.70
2023-02-09T09:09:56.176Z,2.90
2023-02-09T09:12:58.149Z,2.90
2023-02-09T09:16:05.014Z,2.90
2023-02-09T09:19:11.813Z,3.00
2023-02-09T09:22:16.125Z,3.10
2023-02-09T09:25:21.605Z,3.10
2023-02-09T09:28:26.159Z,3.20
2023-02-09T09:31:28.223Z,3.30
2023-02-09T09:34:30.435Z,3.40
2023-02-09T09:37:34.471Z,3.50
2023-02-09T09:44:06.210Z,3.70
2023-02-09T09:47:13.127Z,3.70
2023-02-09T09:50:21.519Z,3.90
2023-02-09T09:53:33.424Z,3.90
2023-02-09T09:56:35.513Z,4.00
2023-02-09T09:59:43.233Z,3.90
2023-02-09T10:03:06.932Z,4.00
2023-02-09T10:06:14.747Z,4.00
2023-02-09T10:09:16.777Z,4.10
2023-02-09T10:12:41.649Z,4.10
2023-02-09T10:16:10.524Z,4.20
2023-02-09T10:23:02.095Z,4.30
2023-02-09T10:26:10.069Z,4.40
2023-02-09T10:29:11.895Z,4.40
2023-02-09T10:32:15.763Z,4.40
2023-02-09T10:39:10.459Z,4.50
2023-02-09T10:42:33.357Z,4.60
2023-02-09T10:45:39.877Z,4.70
2023-02-09T10:48:46.579Z,4.80
2023-02-09T10:52:15.082Z,4.80
2023-02-09T10:55:40.579Z,4.80
2023-02-09T10:59:10.442Z,4.90
2023-02-09T11:06:24.288Z,5.00
2023-02-09T11:09:48.171Z,5.00
2023-02-09T11:13:26.022Z,5.00
2023-02-09T11:21:32.679Z,5.30
2023-02-09T11:28:22.574Z,5.50
2023-02-09T11:32:13.743Z,5.50
2023-02-09T11:39:54.595Z,5.60
2023-02-09T11:42:58.060Z,5.60
2023-02-09T11:46:27.199Z,5.60
2023-02-09T11:49:37.894Z,5.70
2023-02-09T11:52:55.205Z,5.80
2023-02-09T11:55:59.939Z,5.90
2023-02-09T11:59:02.120Z,5.90
2023-02-09T12:02:34.767Z,5.90
2023-02-09T12:05:37.659Z,6.00
2023-02-09T12:08:39.552Z,6.00
2023-02-09T12:11:53.900Z,6.00
2023-02-09T12:15:09.087Z,6.00
2023-02-09T12:18:13.567Z,6.00
2023-02-09T12:21:26.415Z,6.00
2023-02-09T12:24:38.038Z,6.00
2023-02-09T12:27:43.870Z,6.20
2023-02-09T12:30:48.889Z,6.30
2023-02-09T12:33:59.666Z,6.30
2023-02-09T12:37:27.377Z,6.30
2023-02-09T12:40:38.379Z,6.30
2023-02-09T12:43:41.294Z,6.20
2023-02-09T12:46:55.476Z,6.20
2023-02-09T12:50:04.805Z,6.30
2023-02-09T12:53:22.198Z,6.40
2023-02-09T12:56:26.065Z,6.40
2023-02-09T12:59:28.091Z,6.40
2023-02-09T13:02:43.274Z,6.40
2023-02-09T13:05:46.285Z,6.40
2023-02-09T13:08:56.449Z,6.30
2023-02-09T13:12:10.583Z,6.30
2023-02-09T13:15:14.990Z,6.30
2023-02-09T13:18:36.736Z,6.30
2023-02-09T13:21:48.106Z,6.40
2023-02-09T13:24:55.273Z,6.30
2023-02-09T13:28:14.787Z,6.30
2023-02-09T13:35:06.706Z,6.40
2023-02-09T13:38:31.342Z,6.50
2023-02-09T13:41:41.254Z,6.60
2023-02-09T13:45:04.546Z,6.60
2023-02-09T13:51:43.462Z,6.50
2023-02-09T13:54:46.108Z,6.50
2023-02-09T13:58:20.595Z,6.40
2023-02-09T14:05:08.287Z,6.50
2023-02-09T14:08:12.381Z,6.60
2023-02-09T14:11:28.136Z,6.50
2023-02-09T14:14:59.932Z,6.50
2023-02-09T14:18:01.699Z,6.60
2023-02-09T14:24:49.072Z,6.60
2023-02-09T14:27:51.382Z,6.60
2023-02-09T14:31:00.690Z,6.70
2023-02-09T14:34:21.588Z,6.60
2023-02-09T14:37:23.588Z,6.70
2023-02-09T14:43:52.731Z,6.60
2023-02-09T14:46:58.990Z,6.60
2023-02-09T14:50:01.035Z,6.60
2023-02-09T14:53:06.842Z,6.50
2023-02-09T14:56:15.566Z,6.60
2023-02-09T14:59:17.871Z,6.50
2023-02-09T15:02:22.425Z,6.50
2023-02-09T15:08:40.082Z,6.40
2023-02-09T15:12:00.580Z,6.40
2023-02-09T15:18:21.775Z,6.30
2023-02-09T15:21:23.466Z,6.20
2023-02-09T15:24:25.175Z,6.20
2023-02-09T15:27:40.038Z,6.20
2023-02-09T15:30:42.033Z,6.10
2023-02-09T15:33:43.860Z,6.10
2023-02-09T15:36:45.757Z,6.10
2023-02-09T15:39:48.987Z,6.00
2023-02-09T15:43:12.426Z,6.00
2023-02-09T15:46:34.883Z,6.00
2023-02-09T15:52:40.224Z,6.00
2023-02-09T15:55:43.023Z,5.90
2023-02-09T15:58:45.440Z,5.80
2023-02-09T16:01:47.765Z,5.80
2023-02-09T16:04:49.608Z,5.70
2023-02-09T16:07:52.276Z,5.70
2023-02-09T16:10:54.360Z,5.60
2023-02-09T16:13:56.198Z,5.60
2023-02-09T16:16:58.061Z,5.60
2023-02-09T16:19:59.847Z,5.60
2023-02-09T16:23:11.773Z,5.50
2023-02-09T16:26:21.095Z,5.50
2023-02-09T16:29:25.848Z,5.50
2023-02-09T16:35:45.358Z,5.50
2023-02-09T16:49:24.753Z,5.30
2023-02-09T16:52:27.265Z,5.20
2023-02-09T16:55:39.455Z,5.20
2023-02-09T16:58:41.786Z,5.30
2023-02-09T17:01:48.484Z,5.20
2023-02-09T17:10:16.104Z,5.40
2023-02-09T17:12:54.075Z,5.30
2023-02-09T17:15:58.751Z,5.50
2023-02-09T17:19:04.984Z,5.40
2023-02-09T17:22:10.822Z,5.40
2023-02-09T17:25:16.687Z,5.40
2023-02-09T17:28:19.426Z,5.30
2023-02-09T17:31:27.570Z,5.30
2023-02-09T17:34:32.621Z,5.20
2023-02-09T17:38:22.907Z,5.20
2023-02-09T17:41:46.029Z,5.20
2023-02-09T17:45:03.296Z,5.20
2023-02-09T17:48:31.702Z,5.10
2023-02-09T17:52:02.517Z,5.10
2023-02-09T18:17:43.881Z,5.10
2023-02-09T18:58:37.909Z,5.10
